sensor_id;sensor_type;location;lat;lon;timestamp;P1;durP1;ratioP1;P2;durP2;ratioP2
42832;SDS011;28479;51.478;5.692;2022-08-03T00:00:00;3.28;;;1.50;;
42832;SDS011;28479;51.478;5.692;2022-08-03T00:02:25;2.78;;;1.63;;
42832;SDS011;28479;51.478;5.692;2022-08-03T00:04:51;4.50;;;1.88;;
42832;SDS011;28479;51.478;5.692;2022-08-03T00:07:17;6.38;;;1.45;;
42832;SDS011;28479;51.478;5.692;2022-08-03T00:09:44;7.47;;;1.60;;
42832;SDS011;28479;51.478;5.692;2022-08-03T00:12:10;7.22;;;2.15;;
42832;SDS011;28479;51.478;5.692;2022-08-03T00:14:35;2.80;;;1.83;;
42832;SDS011;28479;51.478;5.692;2022-08-03T00:17:01;6.88;;;2.28;;
42832;SDS011;28479;51.478;5.692;2022-08-03T00:19:27;6.95;;;1.70;;
42832;SDS011;28479;51.478;5.692;2022-08-03T00:21:53;3.20;;;1.80;;
42832;SDS011;28479;51.478;5.692;2022-08-03T00:24:18;3.38;;;1.70;;
42832;SDS011;28479;51.478;5.692;2022-08-03T00:26:44;5.32;;;1.80;;
42832;SDS011;28479;51.478;5.692;2022-08-03T00:29:10;6.07;;;2.17;;
42832;SDS011;28479;51.478;5.692;2022-08-03T00:31:36;11.73;;;2.10;;
42832;SDS011;28479;51.478;5.692;2022-08-03T00:34:02;6.00;;;2.33;;
42832;SDS011;28479;51.478;5.692;2022-08-03T00:36:28;10.63;;;2.75;;
42832;SDS011;28479;51.478;5.692;2022-08-03T00:38:54;5.85;;;2.25;;
42832;SDS011;28479;51.478;5.692;2022-08-03T00:41:23;5.07;;;2.30;;
42832;SDS011;28479;51.478;5.692;2022-08-03T00:43:49;5.55;;;2.30;;
42832;SDS011;28479;51.478;5.692;2022-08-03T00:46:14;6.22;;;1.90;;
42832;SDS011;28479;51.478;5.692;2022-08-03T00:48:40;7.78;;;2.20;;
42832;SDS011;28479;51.478;5.692;2022-08-03T00:51:05;8.95;;;2.00;;
42832;SDS011;28479;51.478;5.692;2022-08-03T00:53:31;7.22;;;2.00;;
42832;SDS011;28479;51.478;5.692;2022-08-03T00:55:59;5.70;;;2.83;;
42832;SDS011;28479;51.478;5.692;2022-08-03T00:58:25;3.80;;;2.40;;
42832;SDS011;28479;51.478;5.692;2022-08-03T01:00:52;4.30;;;2.15;;
42832;SDS011;28479;51.478;5.692;2022-08-03T01:03:17;8.93;;;2.92;;
42832;SDS011;28479;51.478;5.692;2022-08-03T01:13:30;4.25;;;2.20;;
42832;SDS011;28479;51.478;5.692;2022-08-03T01:16:18;2.78;;;1.98;;
42832;SDS011;28479;51.478;5.692;2022-08-03T01:27:20;5.50;;;2.40;;
42832;SDS011;28479;51.478;5.692;2022-08-03T01:32:28;8.82;;;3.15;;
42832;SDS011;28479;51.478;5.692;2022-08-03T01:35:19;4.65;;;2.40;;
42832;SDS011;28479;51.478;5.692;2022-08-03T01:37:51;5.28;;;2.55;;
42832;SDS011;28479;51.478;5.692;2022-08-03T01:40:30;11.32;;;3.70;;
42832;SDS011;28479;51.478;5.692;2022-08-03T01:42:58;7.38;;;2.97;;
42832;SDS011;28479;51.478;5.692;2022-08-03T01:45:27;6.80;;;2.60;;
42832;SDS011;28479;51.478;5.692;2022-08-03T01:47:57;7.25;;;2.30;;
42832;SDS011;28479;51.478;5.692;2022-08-03T01:50:26;8.45;;;2.35;;
42832;SDS011;28479;51.478;5.692;2022-08-03T01:52:54;4.32;;;2.65;;
42832;SDS011;28479;51.478;5.692;2022-08-03T01:55:21;11.98;;;2.55;;
42832;SDS011;28479;51.478;5.692;2022-08-03T01:57:54;5.35;;;3.03;;
42832;SDS011;28479;51.478;5.692;2022-08-03T02:00:21;9.32;;;2.72;;
42832;SDS011;28479;51.478;5.692;2022-08-03T02:02:51;7.65;;;3.17;;
42832;SDS011;28479;51.478;5.692;2022-08-03T02:05:20;8.38;;;2.47;;
42832;SDS011;28479;51.478;5.692;2022-08-03T02:07:46;6.88;;;2.42;;
42832;SDS011;28479;51.478;5.692;2022-08-03T02:10:14;4.53;;;2.30;;
42832;SDS011;28479;51.478;5.692;2022-08-03T02:12:43;12.00;;;3.47;;
42832;SDS011;28479;51.478;5.692;2022-08-03T02:15:10;6.45;;;3.08;;
42832;SDS011;28479;51.478;5.692;2022-08-03T02:17:39;10.80;;;3.13;;
42832;SDS011;28479;51.478;5.692;2022-08-03T02:20:07;5.38;;;2.83;;
42832;SDS011;28479;51.478;5.692;2022-08-03T02:22:38;9.50;;;2.42;;
42832;SDS011;28479;51.478;5.692;2022-08-03T02:25:06;15.55;;;3.63;;
42832;SDS011;28479;51.478;5.692;2022-08-03T02:27:33;7.15;;;2.72;;
42832;SDS011;28479;51.478;5.692;2022-08-03T02:30:06;13.25;;;3.72;;
42832;SDS011;28479;51.478;5.692;2022-08-03T02:32:34;4.95;;;3.35;;
42832;SDS011;28479;51.478;5.692;2022-08-03T02:35:03;7.97;;;2.70;;
42832;SDS011;28479;51.478;5.692;2022-08-03T02:37:31;6.32;;;2.83;;
42832;SDS011;28479;51.478;5.692;2022-08-03T02:40:05;7.97;;;2.95;;
42832;SDS011;28479;51.478;5.692;2022-08-03T02:42:33;6.47;;;3.20;;
42832;SDS011;28479;51.478;5.692;2022-08-03T02:45:03;6.70;;;3.30;;
42832;SDS011;28479;51.478;5.692;2022-08-03T02:47:31;9.10;;;2.92;;
42832;SDS011;28479;51.478;5.692;2022-08-03T02:50:00;14.95;;;3.80;;
42832;SDS011;28479;51.478;5.692;2022-08-03T02:52:27;8.38;;;2.50;;
42832;SDS011;28479;51.478;5.692;2022-08-03T02:54:56;9.50;;;2.60;;
42832;SDS011;28479;51.478;5.692;2022-08-03T02:57:25;5.75;;;2.90;;
42832;SDS011;28479;51.478;5.692;2022-08-03T02:59:52;9.07;;;3.03;;
42832;SDS011;28479;51.478;5.692;2022-08-03T03:02:19;8.90;;;3.00;;
42832;SDS011;28479;51.478;5.692;2022-08-03T03:04:45;9.00;;;3.25;;
42832;SDS011;28479;51.478;5.692;2022-08-03T03:07:14;9.00;;;3.15;;
42832;SDS011;28479;51.478;5.692;2022-08-03T03:09:41;8.40;;;3.30;;
42832;SDS011;28479;51.478;5.692;2022-08-03T03:12:07;13.68;;;3.95;;
42832;SDS011;28479;51.478;5.692;2022-08-03T03:14:35;6.40;;;3.33;;
42832;SDS011;28479;51.478;5.692;2022-08-03T03:17:01;8.00;;;3.17;;
42832;SDS011;28479;51.478;5.692;2022-08-03T03:19:28;9.50;;;3.65;;
42832;SDS011;28479;51.478;5.692;2022-08-03T03:21:56;8.95;;;3.67;;
42832;SDS011;28479;51.478;5.692;2022-08-03T03:24:25;8.30;;;3.22;;
42832;SDS011;28479;51.478;5.692;2022-08-03T03:26:52;5.30;;;2.85;;
42832;SDS011;28479;51.478;5.692;2022-08-03T03:29:19;7.47;;;2.95;;
42832;SDS011;28479;51.478;5.692;2022-08-03T03:31:45;12.60;;;3.83;;
42832;SDS011;28479;51.478;5.692;2022-08-03T03:34:11;9.45;;;3.15;;
42832;SDS011;28479;51.478;5.692;2022-08-03T03:36:37;5.82;;;3.05;;
42832;SDS011;28479;51.478;5.692;2022-08-03T03:39:03;13.52;;;3.78;;
42832;SDS011;28479;51.478;5.692;2022-08-03T03:41:29;6.82;;;3.35;;
42832;SDS011;28479;51.478;5.692;2022-08-03T03:43:55;5.97;;;3.55;;
42832;SDS011;28479;51.478;5.692;2022-08-03T03:46:20;13.90;;;3.72;;
42832;SDS011;28479;51.478;5.692;2022-08-03T03:48:46;5.05;;;3.03;;
42832;SDS011;28479;51.478;5.692;2022-08-03T03:51:12;4.13;;;2.50;;
42832;SDS011;28479;51.478;5.692;2022-08-03T03:53:39;6.43;;;2.58;;
42832;SDS011;28479;51.478;5.692;2022-08-03T03:56:04;6.30;;;3.28;;
42832;SDS011;28479;51.478;5.692;2022-08-03T03:58:31;10.05;;;3.42;;
42832;SDS011;28479;51.478;5.692;2022-08-03T04:00:56;10.10;;;3.28;;
42832;SDS011;28479;51.478;5.692;2022-08-03T04:03:25;12.13;;;4.38;;
42832;SDS011;28479;51.478;5.692;2022-08-03T04:05:51;8.70;;;2.88;;
42832;SDS011;28479;51.478;5.692;2022-08-03T04:08:35;7.75;;;3.28;;
42832;SDS011;28479;51.478;5.692;2022-08-03T04:13:59;13.85;;;3.53;;
42832;SDS011;28479;51.478;5.692;2022-08-03T04:16:32;4.75;;;2.75;;
42832;SDS011;28479;51.478;5.692;2022-08-03T04:21:53;4.50;;;3.03;;
42832;SDS011;28479;51.478;5.692;2022-08-03T04:24:37;8.82;;;3.13;;
42832;SDS011;28479;51.478;5.692;2022-08-03T04:29:35;9.38;;;3.10;;
42832;SDS011;28479;51.478;5.692;2022-08-03T04:32:04;11.02;;;3.17;;
42832;SDS011;28479;51.478;5.692;2022-08-03T04:34:30;13.70;;;3.58;;
42832;SDS011;28479;51.478;5.692;2022-08-03T04:36:57;5.78;;;3.13;;
42832;SDS011;28479;51.478;5.692;2022-08-03T04:39:25;5.47;;;3.33;;
42832;SDS011;28479;51.478;5.692;2022-08-03T04:42:00;8.60;;;3.53;;
42832;SDS011;28479;51.478;5.692;2022-08-03T04:44:29;14.82;;;3.50;;
42832;SDS011;28479;51.478;5.692;2022-08-03T04:46:59;12.20;;;4.47;;
42832;SDS011;28479;51.478;5.692;2022-08-03T04:49:24;11.10;;;3.90;;
42832;SDS011;28479;51.478;5.692;2022-08-03T04:51:51;12.32;;;3.60;;
42832;SDS011;28479;51.478;5.692;2022-08-03T04:54:17;7.28;;;4.22;;
42832;SDS011;28479;51.478;5.692;2022-08-03T04:56:42;13.98;;;4.32;;
42832;SDS011;28479;51.478;5.692;2022-08-03T04:59:08;7.72;;;3.63;;
42832;SDS011;28479;51.478;5.692;2022-08-03T05:01:35;5.80;;;3.55;;
42832;SDS011;28479;51.478;5.692;2022-08-03T05:04:01;6.82;;;4.03;;
42832;SDS011;28479;51.478;5.692;2022-08-03T05:06:27;8.50;;;3.58;;
42832;SDS011;28479;51.478;5.692;2022-08-03T05:08:52;6.55;;;3.15;;
42832;SDS011;28479;51.478;5.692;2022-08-03T05:11:18;6.68;;;3.45;;
42832;SDS011;28479;51.478;5.692;2022-08-03T05:13:44;6.05;;;3.45;;
42832;SDS011;28479;51.478;5.692;2022-08-03T05:16:10;12.55;;;3.40;;
42832;SDS011;28479;51.478;5.692;2022-08-03T05:18:37;7.60;;;3.47;;
42832;SDS011;28479;51.478;5.692;2022-08-03T05:21:03;9.50;;;3.75;;
42832;SDS011;28479;51.478;5.692;2022-08-03T05:23:29;11.50;;;4.00;;
42832;SDS011;28479;51.478;5.692;2022-08-03T05:25:55;9.38;;;4.10;;
42832;SDS011;28479;51.478;5.692;2022-08-03T05:28:21;21.00;;;4.30;;
42832;SDS011;28479;51.478;5.692;2022-08-03T05:30:47;6.72;;;3.63;;
42832;SDS011;28479;51.478;5.692;2022-08-03T05:33:12;8.65;;;4.30;;
42832;SDS011;28479;51.478;5.692;2022-08-03T05:35:38;10.15;;;3.78;;
42832;SDS011;28479;51.478;5.692;2022-08-03T05:38:04;11.07;;;3.55;;
42832;SDS011;28479;51.478;5.692;2022-08-03T05:40:30;7.72;;;3.20;;
42832;SDS011;28479;51.478;5.692;2022-08-03T05:42:57;8.57;;;3.50;;
42832;SDS011;28479;51.478;5.692;2022-08-03T05:45:23;10.45;;;2.97;;
42832;SDS011;28479;51.478;5.692;2022-08-03T05:47:49;5.60;;;3.55;;
42832;SDS011;28479;51.478;5.692;2022-08-03T05:50:16;8.80;;;3.28;;
42832;SDS011;28479;51.478;5.692;2022-08-03T05:52:43;7.63;;;3.42;;
42832;SDS011;28479;51.478;5.692;2022-08-03T05:55:09;9.63;;;3.28;;
42832;SDS011;28479;51.478;5.692;2022-08-03T05:57:35;8.32;;;2.70;;
42832;SDS011;28479;51.478;5.692;2022-08-03T06:00:10;6.68;;;3.35;;
42832;SDS011;28479;51.478;5.692;2022-08-03T06:02:36;5.07;;;3.33;;
42832;SDS011;28479;51.478;5.692;2022-08-03T06:05:02;6.45;;;2.70;;
42832;SDS011;28479;51.478;5.692;2022-08-03T06:07:27;4.80;;;3.00;;
42832;SDS011;28479;51.478;5.692;2022-08-03T06:09:53;7.15;;;3.20;;
42832;SDS011;28479;51.478;5.692;2022-08-03T06:12:21;16.73;;;3.15;;
42832;SDS011;28479;51.478;5.692;2022-08-03T06:14:49;8.70;;;3.60;;
42832;SDS011;28479;51.478;5.692;2022-08-03T06:17:15;4.60;;;3.05;;
42832;SDS011;28479;51.478;5.692;2022-08-03T06:19:41;8.63;;;3.08;;
42832;SDS011;28479;51.478;5.692;2022-08-03T06:22:08;6.40;;;3.03;;
42832;SDS011;28479;51.478;5.692;2022-08-03T06:24:33;10.77;;;3.95;;
42832;SDS011;28479;51.478;5.692;2022-08-03T06:26:59;6.50;;;3.13;;
42832;SDS011;28479;51.478;5.692;2022-08-03T06:29:24;7.00;;;2.55;;
42832;SDS011;28479;51.478;5.692;2022-08-03T06:31:50;4.68;;;2.25;;
42832;SDS011;28479;51.478;5.692;2022-08-03T06:34:16;8.35;;;2.55;;
42832;SDS011;28479;51.478;5.692;2022-08-03T06:36:41;6.57;;;2.47;;
42832;SDS011;28479;51.478;5.692;2022-08-03T06:39:07;8.20;;;2.10;;
42832;SDS011;28479;51.478;5.692;2022-08-03T06:41:34;14.35;;;1.90;;
42832;SDS011;28479;51.478;5.692;2022-08-03T06:44:00;9.23;;;3.55;;
42832;SDS011;28479;51.478;5.692;2022-08-03T06:46:25;9.60;;;1.92;;
42832;SDS011;28479;51.478;5.692;2022-08-03T06:48:51;7.15;;;2.05;;
42832;SDS011;28479;51.478;5.692;2022-08-03T06:51:17;7.25;;;2.40;;
42832;SDS011;28479;51.478;5.692;2022-08-03T06:53:42;6.68;;;1.60;;
42832;SDS011;28479;51.478;5.692;2022-08-03T06:56:08;5.65;;;1.75;;
42832;SDS011;28479;51.478;5.692;2022-08-03T06:58:34;4.78;;;1.63;;
42832;SDS011;28479;51.478;5.692;2022-08-03T07:00:59;1.92;;;1.40;;
42832;SDS011;28479;51.478;5.692;2022-08-03T07:03:25;11.13;;;1.75;;
42832;SDS011;28479;51.478;5.692;2022-08-03T07:05:51;10.20;;;2.42;;
42832;SDS011;28479;51.478;5.692;2022-08-03T07:08:17;4.47;;;1.70;;
42832;SDS011;28479;51.478;5.692;2022-08-03T07:10:43;3.40;;;1.35;;
42832;SDS011;28479;51.478;5.692;2022-08-03T07:13:09;10.02;;;1.48;;
42832;SDS011;28479;51.478;5.692;2022-08-03T07:15:35;5.78;;;1.42;;
42832;SDS011;28479;51.478;5.692;2022-08-03T07:18:01;4.22;;;1.63;;
42832;SDS011;28479;51.478;5.692;2022-08-03T07:20:27;2.63;;;1.15;;
42832;SDS011;28479;51.478;5.692;2022-08-03T07:22:53;6.80;;;1.35;;
42832;SDS011;28479;51.478;5.692;2022-08-03T07:25:18;5.03;;;1.00;;
42832;SDS011;28479;51.478;5.692;2022-08-03T07:27:44;2.05;;;1.00;;
42832;SDS011;28479;51.478;5.692;2022-08-03T07:30:12;17.58;;;9.18;;
42832;SDS011;28479;51.478;5.692;2022-08-03T07:32:38;32.58;;;16.48;;
42832;SDS011;28479;51.478;5.692;2022-08-03T07:35:04;40.40;;;20.75;;
42832;SDS011;28479;51.478;5.692;2022-08-03T07:37:31;35.95;;;17.27;;
42832;SDS011;28479;51.478;5.692;2022-08-03T07:39:57;6.97;;;2.35;;
42832;SDS011;28479;51.478;5.692;2022-08-03T07:42:24;3.85;;;1.45;;
42832;SDS011;28479;51.478;5.692;2022-08-03T07:44:54;8.02;;;2.15;;
42832;SDS011;28479;51.478;5.692;2022-08-03T07:47:26;11.75;;;1.13;;
42832;SDS011;28479;51.478;5.692;2022-08-03T07:49:53;15.13;;;1.30;;
42832;SDS011;28479;51.478;5.692;2022-08-03T07:52:25;4.20;;;1.48;;
42832;SDS011;28479;51.478;5.692;2022-08-03T07:55:09;5.97;;;1.00;;
42832;SDS011;28479;51.478;5.692;2022-08-03T07:57:35;9.52;;;1.70;;
42832;SDS011;28479;51.478;5.692;2022-08-03T08:00:02;7.25;;;1.92;;
42832;SDS011;28479;51.478;5.692;2022-08-03T08:02:29;8.13;;;1.60;;
42832;SDS011;28479;51.478;5.692;2022-08-03T08:04:55;5.95;;;1.35;;
42832;SDS011;28479;51.478;5.692;2022-08-03T08:07:21;8.70;;;1.67;;
42832;SDS011;28479;51.478;5.692;2022-08-03T08:09:46;11.15;;;1.50;;
42832;SDS011;28479;51.478;5.692;2022-08-03T08:12:12;8.07;;;1.27;;
42832;SDS011;28479;51.478;5.692;2022-08-03T08:14:37;3.80;;;1.45;;
42832;SDS011;28479;51.478;5.692;2022-08-03T08:17:03;4.22;;;1.30;;
42832;SDS011;28479;51.478;5.692;2022-08-03T08:19:29;6.97;;;1.83;;
42832;SDS011;28479;51.478;5.692;2022-08-03T08:21:55;11.57;;;2.15;;
42832;SDS011;28479;51.478;5.692;2022-08-03T08:24:20;5.10;;;0.90;;
42832;SDS011;28479;51.478;5.692;2022-08-03T08:26:46;2.65;;;1.30;;
42832;SDS011;28479;51.478;5.692;2022-08-03T08:29:11;9.38;;;2.40;;
42832;SDS011;28479;51.478;5.692;2022-08-03T08:31:37;6.97;;;1.65;;
42832;SDS011;28479;51.478;5.692;2022-08-03T08:34:02;5.40;;;1.40;;
42832;SDS011;28479;51.478;5.692;2022-08-03T08:36:32;1.35;;;0.93;;
42832;SDS011;28479;51.478;5.692;2022-08-03T08:38:58;5.10;;;1.33;;
42832;SDS011;28479;51.478;5.692;2022-08-03T08:41:25;2.75;;;1.40;;
42832;SDS011;28479;51.478;5.692;2022-08-03T08:43:52;8.00;;;1.17;;
42832;SDS011;28479;51.478;5.692;2022-08-03T08:46:18;1.55;;;0.98;;
42832;SDS011;28479;51.478;5.692;2022-08-03T08:48:44;4.35;;;1.25;;
42832;SDS011;28479;51.478;5.692;2022-08-03T08:51:12;5.15;;;1.40;;
42832;SDS011;28479;51.478;5.692;2022-08-03T08:53:39;3.83;;;1.25;;
42832;SDS011;28479;51.478;5.692;2022-08-03T08:56:08;5.45;;;1.15;;
42832;SDS011;28479;51.478;5.692;2022-08-03T08:58:43;13.35;;;1.65;;
42832;SDS011;28479;51.478;5.692;2022-08-03T09:01:19;5.22;;;1.00;;
42832;SDS011;28479;51.478;5.692;2022-08-03T09:03:45;4.95;;;1.05;;
42832;SDS011;28479;51.478;5.692;2022-08-03T09:06:12;4.60;;;0.90;;
42832;SDS011;28479;51.478;5.692;2022-08-03T09:08:39;7.55;;;0.98;;
42832;SDS011;28479;51.478;5.692;2022-08-03T09:11:05;1.63;;;0.88;;
42832;SDS011;28479;51.478;5.692;2022-08-03T09:13:32;2.33;;;1.20;;
42832;SDS011;28479;51.478;5.692;2022-08-03T09:16:17;5.10;;;1.05;;
42832;SDS011;28479;51.478;5.692;2022-08-03T09:18:49;4.43;;;1.73;;
42832;SDS011;28479;51.478;5.692;2022-08-03T09:23:58;2.67;;;1.25;;
42832;SDS011;28479;51.478;5.692;2022-08-03T09:26:25;6.60;;;2.20;;
42832;SDS011;28479;51.478;5.692;2022-08-03T09:28:56;4.10;;;1.00;;
42832;SDS011;28479;51.478;5.692;2022-08-03T09:31:33;5.25;;;1.05;;
42832;SDS011;28479;51.478;5.692;2022-08-03T09:34:03;4.18;;;1.10;;
42832;SDS011;28479;51.478;5.692;2022-08-03T09:36:34;4.53;;;0.88;;
42832;SDS011;28479;51.478;5.692;2022-08-03T09:39:04;3.50;;;1.20;;
42832;SDS011;28479;51.478;5.692;2022-08-03T09:41:31;5.18;;;1.75;;
42832;SDS011;28479;51.478;5.692;2022-08-03T09:43:58;2.33;;;1.05;;
42832;SDS011;28479;51.478;5.692;2022-08-03T09:46:24;25.67;;;13.30;;
42832;SDS011;28479;51.478;5.692;2022-08-03T09:48:50;9.75;;;3.60;;
42832;SDS011;28479;51.478;5.692;2022-08-03T09:51:15;25.20;;;11.93;;
42832;SDS011;28479;51.478;5.692;2022-08-03T09:53:44;17.35;;;9.10;;
42832;SDS011;28479;51.478;5.692;2022-08-03T09:56:10;7.63;;;2.65;;
42832;SDS011;28479;51.478;5.692;2022-08-03T09:58:43;7.65;;;1.67;;
42832;SDS011;28479;51.478;5.692;2022-08-03T10:01:11;3.30;;;1.40;;
42832;SDS011;28479;51.478;5.692;2022-08-03T10:03:37;9.38;;;1.80;;
42832;SDS011;28479;51.478;5.692;2022-08-03T10:06:14;7.93;;;2.00;;
42832;SDS011;28479;51.478;5.692;2022-08-03T10:08:40;8.25;;;1.70;;
42832;SDS011;28479;51.478;5.692;2022-08-03T10:11:06;8.85;;;1.38;;
42832;SDS011;28479;51.478;5.692;2022-08-03T10:13:32;10.57;;;2.40;;
42832;SDS011;28479;51.478;5.692;2022-08-03T10:15:58;7.95;;;1.27;;
42832;SDS011;28479;51.478;5.692;2022-08-03T10:18:23;13.02;;;1.83;;
42832;SDS011;28479;51.478;5.692;2022-08-03T10:20:52;5.45;;;1.23;;
42832;SDS011;28479;51.478;5.692;2022-08-03T10:23:27;9.32;;;1.33;;
42832;SDS011;28479;51.478;5.692;2022-08-03T10:25:54;13.30;;;1.55;;
42832;SDS011;28479;51.478;5.692;2022-08-03T10:28:25;13.93;;;1.35;;
42832;SDS011;28479;51.478;5.692;2022-08-03T10:31:08;6.35;;;1.80;;
42832;SDS011;28479;51.478;5.692;2022-08-03T10:33:40;6.45;;;1.23;;
42832;SDS011;28479;51.478;5.692;2022-08-03T10:36:08;12.75;;;2.65;;
42832;SDS011;28479;51.478;5.692;2022-08-03T10:38:48;4.57;;;1.27;;
42832;SDS011;28479;51.478;5.692;2022-08-03T10:41:20;6.78;;;1.85;;
42832;SDS011;28479;51.478;5.692;2022-08-03T10:43:52;8.95;;;2.30;;
42832;SDS011;28479;51.478;5.692;2022-08-03T10:46:27;10.10;;;1.88;;
42832;SDS011;28479;51.478;5.692;2022-08-03T10:48:53;10.52;;;1.52;;
42832;SDS011;28479;51.478;5.692;2022-08-03T10:51:25;6.18;;;2.13;;
42832;SDS011;28479;51.478;5.692;2022-08-03T10:53:56;13.63;;;1.33;;
42832;SDS011;28479;51.478;5.692;2022-08-03T10:59:15;5.30;;;1.50;;
42832;SDS011;28479;51.478;5.692;2022-08-03T11:02:04;13.88;;;2.22;;
42832;SDS011;28479;51.478;5.692;2022-08-03T11:04:32;5.68;;;2.20;;
42832;SDS011;28479;51.478;5.692;2022-08-03T11:07:17;14.13;;;1.40;;
42832;SDS011;28479;51.478;5.692;2022-08-03T11:09:54;10.35;;;2.05;;
42832;SDS011;28479;51.478;5.692;2022-08-03T11:14:50;4.65;;;1.50;;
42832;SDS011;28479;51.478;5.692;2022-08-03T11:17:18;7.03;;;1.27;;
42832;SDS011;28479;51.478;5.692;2022-08-03T11:19:45;7.90;;;1.08;;
42832;SDS011;28479;51.478;5.692;2022-08-03T11:22:14;6.90;;;1.33;;
42832;SDS011;28479;51.478;5.692;2022-08-03T11:30:05;6.88;;;1.23;;
42832;SDS011;28479;51.478;5.692;2022-08-03T11:43:05;4.38;;;1.20;;
42832;SDS011;28479;51.478;5.692;2022-08-03T11:48:24;5.50;;;1.88;;
42832;SDS011;28479;51.478;5.692;2022-08-03T11:50:53;8.95;;;1.77;;
42832;SDS011;28479;51.478;5.692;2022-08-03T11:53:18;7.57;;;1.77;;
42832;SDS011;28479;51.478;5.692;2022-08-03T11:55:45;3.95;;;0.98;;
42832;SDS011;28479;51.478;5.692;2022-08-03T11:58:20;4.68;;;0.95;;
42832;SDS011;28479;51.478;5.692;2022-08-03T12:00:47;1.88;;;0.95;;
42832;SDS011;28479;51.478;5.692;2022-08-03T12:03:17;5.90;;;1.98;;
42832;SDS011;28479;51.478;5.692;2022-08-03T12:05:45;10.02;;;1.80;;
42832;SDS011;28479;51.478;5.692;2022-08-03T12:08:12;6.72;;;1.20;;
42832;SDS011;28479;51.478;5.692;2022-08-03T12:10:43;3.85;;;1.00;;
42832;SDS011;28479;51.478;5.692;2022-08-03T12:13:11;2.92;;;1.70;;
42832;SDS011;28479;51.478;5.692;2022-08-03T12:15:36;4.32;;;1.83;;
42832;SDS011;28479;51.478;5.692;2022-08-03T12:18:03;8.23;;;0.95;;
42832;SDS011;28479;51.478;5.692;2022-08-03T12:20:36;4.63;;;0.90;;
42832;SDS011;28479;51.478;5.692;2022-08-03T12:23:05;5.78;;;1.60;;
42832;SDS011;28479;51.478;5.692;2022-08-03T12:25:32;4.00;;;0.93;;
42832;SDS011;28479;51.478;5.692;2022-08-03T12:28:05;3.78;;;0.98;;
42832;SDS011;28479;51.478;5.692;2022-08-03T12:30:33;5.03;;;1.23;;
42832;SDS011;28479;51.478;5.692;2022-08-03T12:33:10;3.05;;;1.05;;
42832;SDS011;28479;51.478;5.692;2022-08-03T12:35:41;2.13;;;1.15;;
42832;SDS011;28479;51.478;5.692;2022-08-03T12:38:07;5.70;;;1.13;;
42832;SDS011;28479;51.478;5.692;2022-08-03T12:40:34;3.40;;;1.48;;
42832;SDS011;28479;51.478;5.692;2022-08-03T12:42:59;5.88;;;1.45;;
42832;SDS011;28479;51.478;5.692;2022-08-03T12:45:35;6.80;;;1.30;;
42832;SDS011;28479;51.478;5.692;2022-08-03T12:48:01;9.15;;;1.20;;
42832;SDS011;28479;51.478;5.692;2022-08-03T12:50:31;9.88;;;3.35;;
42832;SDS011;28479;51.478;5.692;2022-08-03T12:52:59;4.55;;;1.27;;
42832;SDS011;28479;51.478;5.692;2022-08-03T12:55:26;4.28;;;1.60;;
42832;SDS011;28479;51.478;5.692;2022-08-03T12:57:58;3.95;;;1.20;;
42832;SDS011;28479;51.478;5.692;2022-08-03T13:00:24;3.22;;;1.40;;
42832;SDS011;28479;51.478;5.692;2022-08-03T13:03:04;10.55;;;1.08;;
42832;SDS011;28479;51.478;5.692;2022-08-03T13:05:32;17.10;;;1.38;;
42832;SDS011;28479;51.478;5.692;2022-08-03T13:08:16;6.47;;;1.25;;
42832;SDS011;28479;51.478;5.692;2022-08-03T13:10:43;3.92;;;1.05;;
42832;SDS011;28479;51.478;5.692;2022-08-03T13:13:10;2.50;;;0.98;;
42832;SDS011;28479;51.478;5.692;2022-08-03T13:15:36;4.88;;;1.00;;
42832;SDS011;28479;51.478;5.692;2022-08-03T13:18:01;11.85;;;1.95;;
42832;SDS011;28479;51.478;5.692;2022-08-03T13:20:27;2.33;;;1.23;;
42832;SDS011;28479;51.478;5.692;2022-08-03T13:22:53;1.58;;;0.98;;
42832;SDS011;28479;51.478;5.692;2022-08-03T13:25:20;3.38;;;1.63;;
42832;SDS011;28479;51.478;5.692;2022-08-03T13:27:46;1.65;;;0.80;;
42832;SDS011;28479;51.478;5.692;2022-08-03T13:30:12;5.30;;;1.23;;
42832;SDS011;28479;51.478;5.692;2022-08-03T13:32:38;8.00;;;1.45;;
42832;SDS011;28479;51.478;5.692;2022-08-03T13:35:04;1.25;;;0.90;;
42832;SDS011;28479;51.478;5.692;2022-08-03T13:37:31;3.42;;;1.55;;
42832;SDS011;28479;51.478;5.692;2022-08-03T13:39:58;3.47;;;1.50;;
42832;SDS011;28479;51.478;5.692;2022-08-03T13:42:24;3.30;;;1.35;;
42832;SDS011;28479;51.478;5.692;2022-08-03T13:44:50;6.32;;;1.55;;
42832;SDS011;28479;51.478;5.692;2022-08-03T13:47:16;6.18;;;1.33;;
42832;SDS011;28479;51.478;5.692;2022-08-03T13:49:41;3.55;;;1.15;;
42832;SDS011;28479;51.478;5.692;2022-08-03T13:52:07;1.25;;;0.82;;
42832;SDS011;28479;51.478;5.692;2022-08-03T13:54:32;5.40;;;1.20;;
42832;SDS011;28479;51.478;5.692;2022-08-03T13:56:58;4.45;;;1.67;;
42832;SDS011;28479;51.478;5.692;2022-08-03T13:59:24;5.35;;;1.35;;
42832;SDS011;28479;51.478;5.692;2022-08-03T14:01:50;6.45;;;1.70;;
42832;SDS011;28479;51.478;5.692;2022-08-03T14:04:18;5.53;;;1.13;;
42832;SDS011;28479;51.478;5.692;2022-08-03T14:06:44;3.80;;;1.83;;
42832;SDS011;28479;51.478;5.692;2022-08-03T14:09:10;1.73;;;1.00;;
42832;SDS011;28479;51.478;5.692;2022-08-03T14:11:39;4.18;;;1.90;;
42832;SDS011;28479;51.478;5.692;2022-08-03T14:14:06;4.22;;;1.38;;
42832;SDS011;28479;51.478;5.692;2022-08-03T14:16:34;3.08;;;1.35;;
42832;SDS011;28479;51.478;5.692;2022-08-03T14:19:00;5.70;;;1.10;;
42832;SDS011;28479;51.478;5.692;2022-08-03T14:21:26;5.07;;;1.40;;
42832;SDS011;28479;51.478;5.692;2022-08-03T14:23:51;4.05;;;1.10;;
42832;SDS011;28479;51.478;5.692;2022-08-03T14:26:17;2.38;;;1.40;;
42832;SDS011;28479;51.478;5.692;2022-08-03T14:28:44;2.40;;;1.25;;
42832;SDS011;28479;51.478;5.692;2022-08-03T14:31:10;4.32;;;1.45;;
42832;SDS011;28479;51.478;5.692;2022-08-03T14:33:36;3.60;;;1.08;;
42832;SDS011;28479;51.478;5.692;2022-08-03T14:36:02;1.48;;;1.20;;
42832;SDS011;28479;51.478;5.692;2022-08-03T14:38:28;7.13;;;1.42;;
42832;SDS011;28479;51.478;5.692;2022-08-03T14:40:54;1.38;;;0.85;;
42832;SDS011;28479;51.478;5.692;2022-08-03T14:43:20;6.97;;;1.27;;
42832;SDS011;28479;51.478;5.692;2022-08-03T14:45:46;6.97;;;0.93;;
42832;SDS011;28479;51.478;5.692;2022-08-03T14:48:16;8.10;;;1.33;;
42832;SDS011;28479;51.478;5.692;2022-08-03T14:50:42;4.93;;;1.48;;
42832;SDS011;28479;51.478;5.692;2022-08-03T14:53:07;1.70;;;1.17;;
42832;SDS011;28479;51.478;5.692;2022-08-03T14:55:33;3.38;;;1.23;;
42832;SDS011;28479;51.478;5.692;2022-08-03T14:57:59;3.65;;;1.17;;
42832;SDS011;28479;51.478;5.692;2022-08-03T15:00:29;2.50;;;1.30;;
42832;SDS011;28479;51.478;5.692;2022-08-03T15:02:59;4.73;;;1.23;;
42832;SDS011;28479;51.478;5.692;2022-08-03T15:05:25;2.33;;;1.00;;
42832;SDS011;28479;51.478;5.692;2022-08-03T15:07:51;8.68;;;1.35;;
42832;SDS011;28479;51.478;5.692;2022-08-03T15:10:17;14.30;;;1.00;;
42832;SDS011;28479;51.478;5.692;2022-08-03T15:12:42;0.98;;;0.70;;
42832;SDS011;28479;51.478;5.692;2022-08-03T15:15:08;3.20;;;1.55;;
42832;SDS011;28479;51.478;5.692;2022-08-03T15:17:34;8.13;;;1.25;;
42832;SDS011;28479;51.478;5.692;2022-08-03T15:20:00;3.53;;;1.60;;
42832;SDS011;28479;51.478;5.692;2022-08-03T15:22:25;3.28;;;1.27;;
42832;SDS011;28479;51.478;5.692;2022-08-03T15:24:51;3.33;;;1.33;;
42832;SDS011;28479;51.478;5.692;2022-08-03T15:27:17;14.20;;;2.60;;
42832;SDS011;28479;51.478;5.692;2022-08-03T15:29:43;5.72;;;2.50;;
42832;SDS011;28479;51.478;5.692;2022-08-03T15:32:08;7.72;;;4.50;;
42832;SDS011;28479;51.478;5.692;2022-08-03T15:34:34;3.20;;;2.28;;
42832;SDS011;28479;51.478;5.692;2022-08-03T15:37:00;2.20;;;1.90;;
42832;SDS011;28479;51.478;5.692;2022-08-03T15:39:25;5.57;;;1.27;;
42832;SDS011;28479;51.478;5.692;2022-08-03T15:41:51;1.75;;;1.08;;